sensor_id;sensor_type;location;lat;lon;timestamp;P1;durP1;ratioP1;P2;durP2;ratioP2
35550;SDS011;21655;46.056;13.616;2022-08-02T06:23:52;3.67;;;1.25;;
35550;SDS011;21655;46.056;13.616;2022-08-02T06:26:19;4.30;;;1.25;;
35550;SDS011;21655;46.056;13.616;2022-08-02T06:28:46;3.67;;;1.40;;
35550;SDS011;21655;46.056;13.616;2022-08-02T06:31:13;2.47;;;1.05;;
35550;SDS011;21655;46.056;13.616;2022-08-02T06:33:39;4.13;;;1.10;;
35550;SDS011;21655;46.056;13.616;2022-08-02T06:39:02;5.63;;;1.40;;
35550;SDS011;21655;46.056;13.616;2022-08-02T06:41:41;3.00;;;1.40;;
35550;SDS011;21655;46.056;13.616;2022-08-02T06:44:08;2.08;;;1.00;;
35550;SDS011;21655;46.056;13.616;2022-08-02T06:46:34;3.22;;;1.10;;
35550;SDS011;21655;46.056;13.616;2022-08-02T06:48:59;4.70;;;3.05;;
35550;SDS011;21655;46.056;13.616;2022-08-02T06:51:26;6.00;;;1.30;;
35550;SDS011;21655;46.056;13.616;2022-08-02T06:53:52;2.88;;;1.13;;
35550;SDS011;21655;46.056;13.616;2022-08-02T06:56:18;5.28;;;1.02;;
35550;SDS011;21655;46.056;13.616;2022-08-02T06:58:44;4.95;;;0.95;;
35550;SDS011;21655;46.056;13.616;2022-08-02T07:01:09;4.05;;;1.20;;
35550;SDS011;21655;46.056;13.616;2022-08-02T07:03:36;3.97;;;0.88;;
35550;SDS011;21655;46.056;13.616;2022-08-02T07:06:03;3.20;;;0.90;;
35550;SDS011;21655;46.056;13.616;2022-08-02T07:08:29;3.15;;;0.70;;
35550;SDS011;21655;46.056;13.616;2022-08-02T07:11:00;1.63;;;0.80;;
35550;SDS011;21655;46.056;13.616;2022-08-02T07:13:26;2.67;;;0.90;;
35550;SDS011;21655;46.056;13.616;2022-08-02T07:15:53;3.97;;;0.90;;
35550;SDS011;21655;46.056;13.616;2022-08-02T07:18:19;1.88;;;0.90;;
35550;SDS011;21655;46.056;13.616;2022-08-02T07:20:45;1.75;;;0.90;;
35550;SDS011;21655;46.056;13.616;2022-08-02T07:23:10;2.00;;;1.00;;
35550;SDS011;21655;46.056;13.616;2022-08-02T07:25:36;4.25;;;0.80;;
35550;SDS011;21655;46.056;13.616;2022-08-02T07:28:02;2.47;;;1.05;;
35550;SDS011;21655;46.056;13.616;2022-08-02T07:30:28;1.33;;;0.70;;
35550;SDS011;21655;46.056;13.616;2022-08-02T07:32:55;4.30;;;0.80;;
35550;SDS011;21655;46.056;13.616;2022-08-02T07:35:21;2.70;;;1.00;;
35550;SDS011;21655;46.056;13.616;2022-08-02T07:37:46;2.60;;;1.00;;
35550;SDS011;21655;46.056;13.616;2022-08-02T07:40:13;2.25;;;0.90;;
35550;SDS011;21655;46.056;13.616;2022-08-02T07:42:38;2.08;;;0.80;;
35550;SDS011;21655;46.056;13.616;2022-08-02T07:45:04;3.05;;;0.80;;
35550;SDS011;21655;46.056;13.616;2022-08-02T07:47:30;3.50;;;0.80;;
35550;SDS011;21655;46.056;13.616;2022-08-02T07:49:55;5.18;;;1.10;;
35550;SDS011;21655;46.056;13.616;2022-08-02T07:52:21;4.80;;;1.10;;
35550;SDS011;21655;46.056;13.616;2022-08-02T07:54:46;3.33;;;0.90;;
35550;SDS011;21655;46.056;13.616;2022-08-02T07:57:12;2.30;;;0.80;;
35550;SDS011;21655;46.056;13.616;2022-08-02T07:59:38;4.80;;;1.15;;
35550;SDS011;21655;46.056;13.616;2022-08-02T08:02:03;3.35;;;0.88;;
35550;SDS011;21655;46.056;13.616;2022-08-02T08:04:29;4.28;;;1.02;;
35550;SDS011;21655;46.056;13.616;2022-08-02T08:06:54;2.60;;;0.80;;
35550;SDS011;21655;46.056;13.616;2022-08-02T08:09:20;4.30;;;1.10;;
35550;SDS011;21655;46.056;13.616;2022-08-02T08:11:46;3.20;;;1.25;;
35550;SDS011;21655;46.056;13.616;2022-08-02T08:14:12;3.22;;;0.90;;
35550;SDS011;21655;46.056;13.616;2022-08-02T08:16:37;4.00;;;0.65;;
35550;SDS011;21655;46.056;13.616;2022-08-02T08:19:03;3.00;;;0.80;;
35550;SDS011;21655;46.056;13.616;2022-08-02T08:21:28;6.72;;;0.90;;
35550;SDS011;21655;46.056;13.616;2022-08-02T08:23:54;3.97;;;0.80;;
35550;SDS011;21655;46.056;13.616;2022-08-02T08:26:21;1.58;;;0.80;;
35550;SDS011;21655;46.056;13.616;2022-08-02T08:28:47;6.80;;;0.80;;
35550;SDS011;21655;46.056;13.616;2022-08-02T08:31:13;4.47;;;1.50;;
35550;SDS011;21655;46.056;13.616;2022-08-02T08:33:38;7.57;;;0.90;;
35550;SDS011;21655;46.056;13.616;2022-08-02T08:36:04;1.30;;;0.60;;
35550;SDS011;21655;46.056;13.616;2022-08-02T08:38:29;2.45;;;0.70;;
35550;SDS011;21655;46.056;13.616;2022-08-02T08:40:55;2.03;;;0.70;;
35550;SDS011;21655;46.056;13.616;2022-08-02T08:43:20;2.30;;;0.70;;
35550;SDS011;21655;46.056;13.616;2022-08-02T08:45:46;1.80;;;0.75;;
35550;SDS011;21655;46.056;13.616;2022-08-02T08:48:13;1.52;;;0.60;;
35550;SDS011;21655;46.056;13.616;2022-08-02T08:50:44;2.83;;;0.70;;
35550;SDS011;21655;46.056;13.616;2022-08-02T08:53:14;2.55;;;0.70;;
35550;SDS011;21655;46.056;13.616;2022-08-02T08:55:41;1.30;;;0.65;;
35550;SDS011;21655;46.056;13.616;2022-08-02T08:58:08;1.30;;;0.57;;
35550;SDS011;21655;46.056;13.616;2022-08-02T09:00:34;4.35;;;0.88;;
35550;SDS011;21655;46.056;13.616;2022-08-02T09:03:04;6.75;;;1.70;;
35550;SDS011;21655;46.056;13.616;2022-08-02T09:05:31;3.85;;;0.77;;
35550;SDS011;21655;46.056;13.616;2022-08-02T09:07:59;2.40;;;0.70;;
35550;SDS011;21655;46.056;13.616;2022-08-02T09:10:44;1.77;;;0.70;;
35550;SDS011;21655;46.056;13.616;2022-08-02T09:15:43;5.85;;;0.63;;
35550;SDS011;21655;46.056;13.616;2022-08-02T09:18:10;4.38;;;0.70;;
35550;SDS011;21655;46.056;13.616;2022-08-02T09:20:55;5.13;;;0.60;;
35550;SDS011;21655;46.056;13.616;2022-08-02T09:23:22;4.68;;;0.68;;
35550;SDS011;21655;46.056;13.616;2022-08-02T09:25:56;3.17;;;0.60;;
35550;SDS011;21655;46.056;13.616;2022-08-02T09:28:26;5.40;;;0.63;;
35550;SDS011;21655;46.056;13.616;2022-08-02T09:31:13;3.45;;;0.60;;
35550;SDS011;21655;46.056;13.616;2022-08-02T09:33:41;4.47;;;0.75;;
35550;SDS011;21655;46.056;13.616;2022-08-02T09:36:08;1.40;;;0.40;;
35550;SDS011;21655;46.056;13.616;2022-08-02T09:38:39;2.63;;;0.52;;
35550;SDS011;21655;46.056;13.616;2022-08-02T09:41:23;5.82;;;0.75;;
35550;SDS011;21655;46.056;13.616;2022-08-02T09:43:50;2.95;;;0.60;;
35550;SDS011;21655;46.056;13.616;2022-08-02T09:48:53;4.47;;;0.98;;
35550;SDS011;21655;46.056;13.616;2022-08-02T09:51:24;1.92;;;0.70;;
35550;SDS011;21655;46.056;13.616;2022-08-02T09:53:55;3.47;;;0.80;;
35550;SDS011;21655;46.056;13.616;2022-08-02T09:56:23;2.20;;;0.70;;
35550;SDS011;21655;46.056;13.616;2022-08-02T09:58:51;3.67;;;0.70;;
35550;SDS011;21655;46.056;13.616;2022-08-02T10:01:40;2.50;;;0.60;;
35550;SDS011;21655;46.056;13.616;2022-08-02T10:04:06;1.35;;;0.55;;
35550;SDS011;21655;46.056;13.616;2022-08-02T10:06:34;3.58;;;0.50;;
35550;SDS011;21655;46.056;13.616;2022-08-02T10:09:00;2.20;;;0.60;;
35550;SDS011;21655;46.056;13.616;2022-08-02T10:11:26;2.35;;;0.60;;
35550;SDS011;21655;46.056;13.616;2022-08-02T10:13:53;4.13;;;0.68;;
35550;SDS011;21655;46.056;13.616;2022-08-02T10:16:20;3.63;;;0.77;;
35550;SDS011;21655;46.056;13.616;2022-08-02T10:18:51;1.30;;;0.50;;
35550;SDS011;21655;46.056;13.616;2022-08-02T10:21:49;5.43;;;0.70;;
35550;SDS011;21655;46.056;13.616;2022-08-02T10:24:26;1.73;;;0.50;;
35550;SDS011;21655;46.056;13.616;2022-08-02T10:26:53;0.88;;;0.50;;
35550;SDS011;21655;46.056;13.616;2022-08-02T10:29:29;1.13;;;0.50;;
35550;SDS011;21655;46.056;13.616;2022-08-02T10:32:05;0.88;;;0.40;;
35550;SDS011;21655;46.056;13.616;2022-08-02T10:34:35;0.90;;;0.60;;
35550;SDS011;21655;46.056;13.616;2022-08-02T10:37:05;1.13;;;0.50;;
35550;SDS011;21655;46.056;13.616;2022-08-02T10:39:42;1.42;;;0.40;;
35550;SDS011;21655;46.056;13.616;2022-08-02T10:42:09;1.50;;;0.52;;
35550;SDS011;21655;46.056;13.616;2022-08-02T10:44:35;1.63;;;0.60;;
35550;SDS011;21655;46.056;13.616;2022-08-02T10:50:16;0.82;;;0.40;;
35550;SDS011;21655;46.056;13.616;2022-08-02T10:52:35;1.73;;;0.50;;
35550;SDS011;21655;46.056;13.616;2022-08-02T10:55:02;2.40;;;0.40;;
35550;SDS011;21655;46.056;13.616;2022-08-02T10:57:34;0.93;;;0.40;;
35550;SDS011;21655;46.056;13.616;2022-08-02T11:00:02;1.02;;;0.50;;
35550;SDS011;21655;46.056;13.616;2022-08-02T11:02:45;1.50;;;0.50;;
35550;SDS011;21655;46.056;13.616;2022-08-02T11:05:12;3.65;;;0.43;;
35550;SDS011;21655;46.056;13.616;2022-08-02T11:07:41;0.93;;;0.47;;
35550;SDS011;21655;46.056;13.616;2022-08-02T11:15:51;1.27;;;0.50;;
35550;SDS011;21655;46.056;13.616;2022-08-02T11:23:56;1.35;;;0.50;;
35550;SDS011;21655;46.056;13.616;2022-08-02T11:26:55;1.40;;;0.55;;
35550;SDS011;21655;46.056;13.616;2022-08-02T11:29:22;0.88;;;0.50;;
35550;SDS011;21655;46.056;13.616;2022-08-02T11:32:17;0.73;;;0.35;;
35550;SDS011;21655;46.056;13.616;2022-08-02T11:34:45;1.98;;;0.70;;
35550;SDS011;21655;46.056;13.616;2022-08-02T11:37:25;1.23;;;0.50;;
35550;SDS011;21655;46.056;13.616;2022-08-02T11:39:52;0.55;;;0.32;;
35550;SDS011;21655;46.056;13.616;2022-08-02T11:42:17;1.00;;;0.50;;
35550;SDS011;21655;46.056;13.616;2022-08-02T11:44:43;1.02;;;0.40;;
35550;SDS011;21655;46.056;13.616;2022-08-02T11:47:10;1.20;;;0.50;;
35550;SDS011;21655;46.056;13.616;2022-08-02T11:49:36;0.35;;;0.30;;
35550;SDS011;21655;46.056;13.616;2022-08-02T11:52:06;2.53;;;0.50;;
35550;SDS011;21655;46.056;13.616;2022-08-02T11:54:35;1.05;;;0.40;;
35550;SDS011;21655;46.056;13.616;2022-08-02T11:57:17;0.85;;;0.40;;
35550;SDS011;21655;46.056;13.616;2022-08-02T11:59:45;0.60;;;0.40;;
35550;SDS011;21655;46.056;13.616;2022-08-02T12:02:13;1.17;;;0.50;;
35550;SDS011;21655;46.056;13.616;2022-08-02T12:04:39;0.50;;;0.32;;
35550;SDS011;21655;46.056;13.616;2022-08-02T12:07:05;0.63;;;0.40;;
35550;SDS011;21655;46.056;13.616;2022-08-02T12:09:32;0.47;;;0.30;;
35550;SDS011;21655;46.056;13.616;2022-08-02T12:11:59;0.98;;;0.50;;
35550;SDS011;21655;46.056;13.616;2022-08-02T12:14:26;1.35;;;0.50;;
35550;SDS011;21655;46.056;13.616;2022-08-02T12:16:53;1.02;;;0.50;;
35550;SDS011;21655;46.056;13.616;2022-08-02T12:19:37;1.38;;;0.50;;
35550;SDS011;21655;46.056;13.616;2022-08-02T12:22:08;1.10;;;0.52;;
35550;SDS011;21655;46.056;13.616;2022-08-02T12:24:35;0.50;;;0.43;;
35550;SDS011;21655;46.056;13.616;2022-08-02T12:27:01;1.70;;;0.70;;
35550;SDS011;21655;46.056;13.616;2022-08-02T12:29:28;1.95;;;0.65;;
35550;SDS011;21655;46.056;13.616;2022-08-02T12:31:57;2.50;;;0.50;;
35550;SDS011;21655;46.056;13.616;2022-08-02T12:34:27;0.65;;;0.40;;
35550;SDS011;21655;46.056;13.616;2022-08-02T12:37:05;0.90;;;0.47;;
35550;SDS011;21655;46.056;13.616;2022-08-02T12:39:35;0.90;;;0.50;;
35550;SDS011;21655;46.056;13.616;2022-08-02T12:42:10;0.40;;;0.40;;
35550;SDS011;21655;46.056;13.616;2022-08-02T12:44:37;0.88;;;0.50;;
35550;SDS011;21655;46.056;13.616;2022-08-02T12:47:14;0.95;;;0.43;;
35550;SDS011;21655;46.056;13.616;2022-08-02T12:49:40;0.50;;;0.30;;
35550;SDS011;21655;46.056;13.616;2022-08-02T12:52:21;0.60;;;0.40;;
35550;SDS011;21655;46.056;13.616;2022-08-02T12:54:48;1.25;;;0.40;;
35550;SDS011;21655;46.056;13.616;2022-08-02T12:57:15;1.45;;;0.50;;
35550;SDS011;21655;46.056;13.616;2022-08-02T12:59:42;0.60;;;0.40;;
35550;SDS011;21655;46.056;13.616;2022-08-02T13:02:13;1.48;;;0.50;;
35550;SDS011;21655;46.056;13.616;2022-08-02T13:04:40;0.85;;;0.40;;
35550;SDS011;21655;46.056;13.616;2022-08-02T13:07:06;0.95;;;0.52;;
35550;SDS011;21655;46.056;13.616;2022-08-02T13:09:39;0.57;;;0.30;;
35550;SDS011;21655;46.056;13.616;2022-08-02T13:12:06;1.05;;;0.52;;
35550;SDS011;21655;46.056;13.616;2022-08-02T13:14:32;4.93;;;0.93;;
35550;SDS011;21655;46.056;13.616;2022-08-02T13:16:58;3.05;;;0.45;;
35550;SDS011;21655;46.056;13.616;2022-08-02T13:19:24;11.55;;;0.80;;
35550;SDS011;21655;46.056;13.616;2022-08-02T13:21:51;2.95;;;0.70;;
35550;SDS011;21655;46.056;13.616;2022-08-02T13:24:16;1.67;;;0.50;;
35550;SDS011;21655;46.056;13.616;2022-08-02T13:26:42;1.25;;;0.55;;
35550;SDS011;21655;46.056;13.616;2022-08-02T13:29:09;2.10;;;0.57;;
35550;SDS011;21655;46.056;13.616;2022-08-02T13:31:36;1.20;;;0.70;;
35550;SDS011;21655;46.056;13.616;2022-08-02T13:34:05;1.23;;;0.50;;
35550;SDS011;21655;46.056;13.616;2022-08-02T13:36:34;1.30;;;0.60;;
35550;SDS011;21655;46.056;13.616;2022-08-02T13:39:03;1.45;;;0.50;;
35550;SDS011;21655;46.056;13.616;2022-08-02T13:41:30;2.25;;;0.60;;
35550;SDS011;21655;46.056;13.616;2022-08-02T13:43:56;1.20;;;0.50;;
35550;SDS011;21655;46.056;13.616;2022-08-02T13:46:21;1.10;;;0.60;;
35550;SDS011;21655;46.056;13.616;2022-08-02T13:48:46;2.25;;;0.70;;
35550;SDS011;21655;46.056;13.616;2022-08-02T13:51:12;1.13;;;0.60;;
35550;SDS011;21655;46.056;13.616;2022-08-02T13:53:39;0.82;;;0.43;;
35550;SDS011;21655;46.056;13.616;2022-08-02T13:56:05;1.00;;;0.50;;
35550;SDS011;21655;46.056;13.616;2022-08-02T13:58:31;2.10;;;0.70;;
35550;SDS011;21655;46.056;13.616;2022-08-02T14:00:57;1.02;;;0.60;;
35550;SDS011;21655;46.056;13.616;2022-08-02T14:03:22;1.52;;;0.60;;
35550;SDS011;21655;46.056;13.616;2022-08-02T14:05:48;1.17;;;0.70;;
35550;SDS011;21655;46.056;13.616;2022-08-02T14:08:14;2.70;;;0.70;;
35550;SDS011;21655;46.056;13.616;2022-08-02T14:10:40;1.48;;;0.60;;
35550;SDS011;21655;46.056;13.616;2022-08-02T14:13:06;1.85;;;0.70;;
35550;SDS011;21655;46.056;13.616;2022-08-02T14:15:31;1.05;;;0.52;;
35550;SDS011;21655;46.056;13.616;2022-08-02T14:17:57;1.58;;;0.77;;
35550;SDS011;21655;46.056;13.616;2022-08-02T14:20:22;3.03;;;0.70;;
35550;SDS011;21655;46.056;13.616;2022-08-02T14:22:48;0.93;;;0.55;;
35550;SDS011;21655;46.056;13.616;2022-08-02T14:25:14;1.05;;;0.65;;
35550;SDS011;21655;46.056;13.616;2022-08-02T14:27:39;3.17;;;0.60;;
35550;SDS011;21655;46.056;13.616;2022-08-02T14:30:05;1.23;;;0.70;;
35550;SDS011;21655;46.056;13.616;2022-08-02T14:32:31;1.88;;;1.00;;
35550;SDS011;21655;46.056;13.616;2022-08-02T14:34:56;1.25;;;0.57;;
35550;SDS011;21655;46.056;13.616;2022-08-02T14:37:21;1.33;;;0.70;;
35550;SDS011;21655;46.056;13.616;2022-08-02T14:39:47;3.88;;;0.70;;
35550;SDS011;21655;46.056;13.616;2022-08-02T14:42:12;2.47;;;0.52;;
35550;SDS011;21655;46.056;13.616;2022-08-02T14:44:38;1.00;;;0.70;;
35550;SDS011;21655;46.056;13.616;2022-08-02T14:47:03;1.05;;;0.65;;
35550;SDS011;21655;46.056;13.616;2022-08-02T14:49:31;2.40;;;1.00;;
35550;SDS011;21655;46.056;13.616;2022-08-02T14:51:57;3.30;;;0.77;;
35550;SDS011;21655;46.056;13.616;2022-08-02T14:54:23;1.50;;;0.80;;
35550;SDS011;21655;46.056;13.616;2022-08-02T14:56:55;1.83;;;0.80;;
35550;SDS011;21655;46.056;13.616;2022-08-02T14:59:21;2.83;;;0.80;;
35550;SDS011;21655;46.056;13.616;2022-08-02T15:01:46;6.03;;;0.80;;
35550;SDS011;21655;46.056;13.616;2022-08-02T15:04:12;1.92;;;0.80;;
35550;SDS011;21655;46.056;13.616;2022-08-02T15:06:37;1.20;;;0.80;;
35550;SDS011;21655;46.056;13.616;2022-08-02T15:09:03;1.00;;;0.70;;
35550;SDS011;21655;46.056;13.616;2022-08-02T15:11:28;1.45;;;0.80;;
35550;SDS011;21655;46.056;13.616;2022-08-02T15:13:54;2.58;;;1.20;;
35550;SDS011;21655;46.056;13.616;2022-08-02T15:16:22;3.17;;;0.70;;
35550;SDS011;21655;46.056;13.616;2022-08-02T15:18:48;6.82;;;1.10;;
35550;SDS011;21655;46.056;13.616;2022-08-02T15:21:13;4.60;;;1.15;;
35550;SDS011;21655;46.056;13.616;2022-08-02T15:23:39;3.33;;;1.00;;
35550;SDS011;21655;46.056;13.616;2022-08-02T15:26:05;2.88;;;0.93;;
35550;SDS011;21655;46.056;13.616;2022-08-02T15:28:30;4.47;;;1.17;;
35550;SDS011;21655;46.056;13.616;2022-08-02T15:30:56;5.10;;;1.15;;
35550;SDS011;21655;46.056;13.616;2022-08-02T15:33:22;2.92;;;1.25;;
35550;SDS011;21655;46.056;13.616;2022-08-02T15:35:47;5.65;;;1.80;;
35550;SDS011;21655;46.056;13.616;2022-08-02T15:38:13;2.53;;;0.90;;
35550;SDS011;21655;46.056;13.616;2022-08-02T15:40:39;2.50;;;0.88;;
35550;SDS011;21655;46.056;13.616;2022-08-02T15:43:05;1.88;;;1.17;;
35550;SDS011;21655;46.056;13.616;2022-08-02T15:45:30;2.95;;;0.93;;
35550;SDS011;21655;46.056;13.616;2022-08-02T15:47:56;1.77;;;0.98;;
35550;SDS011;21655;46.056;13.616;2022-08-02T15:50:21;4.28;;;1.27;;
35550;SDS011;21655;46.056;13.616;2022-08-02T15:52:47;6.18;;;1.10;;
35550;SDS011;21655;46.056;13.616;2022-08-02T15:55:12;3.95;;;1.30;;
35550;SDS011;21655;46.056;13.616;2022-08-02T15:57:38;1.98;;;0.90;;
35550;SDS011;21655;46.056;13.616;2022-08-02T16:00:04;1.65;;;1.08;;
35550;SDS011;21655;46.056;13.616;2022-08-02T16:02:30;2.97;;;1.00;;
35550;SDS011;21655;46.056;13.616;2022-08-02T16:04:56;2.35;;;1.00;;
35550;SDS011;21655;46.056;13.616;2022-08-02T16:07:21;1.92;;;0.98;;
35550;SDS011;21655;46.056;13.616;2022-08-02T16:09:46;4.00;;;1.15;;
35550;SDS011;21655;46.056;13.616;2022-08-02T16:12:12;2.58;;;0.80;;
35550;SDS011;21655;46.056;13.616;2022-08-02T16:14:37;2.45;;;1.08;;
35550;SDS011;21655;46.056;13.616;2022-08-02T16:17:03;1.92;;;1.00;;
35550;SDS011;21655;46.056;13.616;2022-08-02T16:19:28;7.82;;;1.05;;
35550;SDS011;21655;46.056;13.616;2022-08-02T16:21:54;1.65;;;0.90;;
35550;SDS011;21655;46.056;13.616;2022-08-02T16:24:20;2.97;;;1.10;;
35550;SDS011;21655;46.056;13.616;2022-08-02T16:26:45;3.65;;;1.25;;
35550;SDS011;21655;46.056;13.616;2022-08-02T16:29:11;1.70;;;0.85;;
35550;SDS011;21655;46.056;13.616;2022-08-02T16:31:37;3.65;;;1.13;;
35550;SDS011;21655;46.056;13.616;2022-08-02T16:34:03;3.15;;;1.00;;
35550;SDS011;21655;46.056;13.616;2022-08-02T16:36:29;2.53;;;1.02;;
35550;SDS011;21655;46.056;13.616;2022-08-02T16:38:55;3.47;;;1.05;;
35550;SDS011;21655;46.056;13.616;2022-08-02T16:41:20;2.15;;;1.02;;
35550;SDS011;21655;46.056;13.616;2022-08-02T16:43:47;2.65;;;1.27;;
35550;SDS011;21655;46.056;13.616;2022-08-02T16:46:12;4.75;;;1.08;;
35550;SDS011;21655;46.056;13.616;2022-08-02T16:48:38;3.58;;;1.20;;
35550;SDS011;21655;46.056;13.616;2022-08-02T16:51:03;1.42;;;0.90;;
35550;SDS011;21655;46.056;13.616;2022-08-02T16:53:29;8.65;;;1.38;;
35550;SDS011;21655;46.056;13.616;2022-08-02T16:55:54;3.00;;;1.20;;
35550;SDS011;21655;46.056;13.616;2022-08-02T16:58:20;2.58;;;1.30;;
35550;SDS011;21655;46.056;13.616;2022-08-02T17:00:45;3.80;;;1.30;;
35550;SDS011;21655;46.056;13.616;2022-08-02T17:03:11;4.45;;;1.25;;
35550;SDS011;21655;46.056;13.616;2022-08-02T17:05:36;3.22;;;1.20;;
35550;SDS011;21655;46.056;13.616;2022-08-02T17:08:02;3.45;;;1.10;;
35550;SDS011;21655;46.056;13.616;2022-08-02T17:10:28;3.03;;;1.27;;
35550;SDS011;21655;46.056;13.616;2022-08-02T17:12:57;2.47;;;1.17;;
35550;SDS011;21655;46.056;13.616;2022-08-02T17:15:23;3.92;;;1.13;;
35550;SDS011;21655;46.056;13.616;2022-08-02T17:17:49;2.50;;;1.40;;
35550;SDS011;21655;46.056;13.616;2022-08-02T17:20:15;5.75;;;1.13;;
35550;SDS011;21655;46.056;13.616;2022-08-02T17:22:41;2.17;;;1.10;;
35550;SDS011;21655;46.056;13.616;2022-08-02T17:25:07;3.50;;;1.30;;
35550;SDS011;21655;46.056;13.616;2022-08-02T17:27:33;4.20;;;1.50;;
35550;SDS011;21655;46.056;13.616;2022-08-02T17:29:58;2.67;;;1.30;;
35550;SDS011;21655;46.056;13.616;2022-08-02T17:32:23;2.80;;;1.40;;
35550;SDS011;21655;46.056;13.616;2022-08-02T17:34:49;3.30;;;1.42;;
35550;SDS011;21655;46.056;13.616;2022-08-02T17:37:14;3.63;;;1.48;;
35550;SDS011;21655;46.056;13.616;2022-08-02T17:39:40;3.58;;;1.50;;
35550;SDS011;21655;46.056;13.616;2022-08-02T17:42:05;8.90;;;1.50;;
35550;SDS011;21655;46.056;13.616;2022-08-02T17:44:31;5.35;;;1.50;;
35550;SDS011;21655;46.056;13.616;2022-08-02T17:46:56;2.92;;;1.50;;
35550;SDS011;21655;46.056;13.616;2022-08-02T17:49:22;2.03;;;1.20;;
35550;SDS011;21655;46.056;13.616;2022-08-02T17:51:50;2.63;;;1.30;;
35550;SDS011;21655;46.056;13.616;2022-08-02T17:54:16;2.60;;;1.40;;
35550;SDS011;21655;46.056;13.616;2022-08-02T17:56:44;2.97;;;1.30;;
35550;SDS011;21655;46.056;13.616;2022-08-02T17:59:15;2.30;;;1.40;;
35550;SDS011;21655;46.056;13.616;2022-08-02T18:01:43;1.83;;;1.25;;
35550;SDS011;21655;46.056;13.616;2022-08-02T18:04:10;2.30;;;1.23;;
35550;SDS011;21655;46.056;13.616;2022-08-02T18:06:37;3.92;;;1.45;;
35550;SDS011;21655;46.056;13.616;2022-08-02T18:09:04;2.58;;;1.50;;
35550;SDS011;21655;46.056;13.616;2022-08-02T18:11:30;5.22;;;1.42;;
35550;SDS011;21655;46.056;13.616;2022-08-02T18:13:56;7.78;;;1.75;;
35550;SDS011;21655;46.056;13.616;2022-08-02T18:16:22;3.90;;;1.55;;
35550;SDS011;21655;46.056;13.616;2022-08-02T18:18:48;3.55;;;1.42;;
35550;SDS011;21655;46.056;13.616;2022-08-02T18:21:14;3.20;;;1.58;;
35550;SDS011;21655;46.056;13.616;2022-08-02T18:23:40;5.85;;;1.83;;
35550;SDS011;21655;46.056;13.616;2022-08-02T18:26:07;5.65;;;1.77;;
35550;SDS011;21655;46.056;13.616;2022-08-02T18:28:32;4.05;;;1.65;;
35550;SDS011;21655;46.056;13.616;2022-08-02T18:30:58;6.07;;;1.90;;
35550;SDS011;21655;46.056;13.616;2022-08-02T18:33:23;3.75;;;1.80;;
35550;SDS011;21655;46.056;13.616;2022-08-02T18:35:49;3.25;;;1.70;;
35550;SDS011;21655;46.056;13.616;2022-08-02T18:38:14;4.88;;;1.70;;
35550;SDS011;21655;46.056;13.616;2022-08-02T18:40:41;5.00;;;1.80;;
35550;SDS011;21655;46.056;13.616;2022-08-02T18:43:07;4.72;;;1.70;;
35550;SDS011;21655;46.056;13.616;2022-08-02T18:45:33;5.15;;;1.70;;
35550;SDS011;21655;46.056;13.616;2022-08-02T18:47:59;4.05;;;1.70;;
35550;SDS011;21655;46.056;13.616;2022-08-02T18:50:24;3.53;;;1.80;;
35550;SDS011;21655;46.056;13.616;2022-08-02T18:52:50;5.32;;;1.80;;
35550;SDS011;21655;46.056;13.616;2022-08-02T18:55:15;5.65;;;1.88;;
35550;SDS011;21655;46.056;13.616;2022-08-02T18:57:41;5.20;;;1.90;;
35550;SDS011;21655;46.056;13.616;2022-08-02T19:00:06;7.25;;;1.98;;
35550;SDS011;21655;46.056;13.616;2022-08-02T19:02:36;6.18;;;1.90;;
35550;SDS011;21655;46.056;13.616;2022-08-02T19:05:02;3.80;;;2.15;;
35550;SDS011;21655;46.056;13.616;2022-08-02T19:07:27;7.68;;;2.00;;
35550;SDS011;21655;46.056;13.616;2022-08-02T19:09:53;7.18;;;1.92;;
35550;SDS011;21655;46.056;13.616;2022-08-02T19:12:19;3.65;;;2.08;;
35550;SDS011;21655;46.056;13.616;2022-08-02T19:14:44;6.05;;;1.98;;
35550;SDS011;21655;46.056;13.616;2022-08-02T19:17:10;5.38;;;1.90;;
35550;SDS011;21655;46.056;13.616;2022-08-02T19:19:35;3.17;;;2.00;;
35550;SDS011;21655;46.056;13.616;2022-08-02T19:22:00;4.05;;;1.70;;
35550;SDS011;21655;46.056;13.616;2022-08-02T19:24:26;6.35;;;1.98;;
35550;SDS011;21655;46.056;13.616;2022-08-02T19:26:51;6.45;;;1.88;;
35550;SDS011;21655;46.056;13.616;2022-08-02T19:29:17;4.47;;;1.92;;
35550;SDS011;21655;46.056;13.616;2022-08-02T19:31:46;3.17;;;1.73;;
35550;SDS011;21655;46.056;13.616;2022-08-02T19:34:13;6.05;;;1.70;;
35550;SDS011;21655;46.056;13.616;2022-08-02T19:36:40;5.57;;;1.92;;
35550;SDS011;21655;46.056;13.616;2022-08-02T19:39:06;5.45;;;1.80;;
35550;SDS011;21655;46.056;13.616;2022-08-02T19:41:31;4.78;;;1.80;;
35550;SDS011;21655;46.056;13.616;2022-08-02T19:43:57;6.82;;;1.85;;
35550;SDS011;21655;46.056;13.616;2022-08-02T19:46:22;6.28;;;1.90;;
35550;SDS011;21655;46.056;13.616;2022-08-02T19:48:49;7.20;;;1.60;;
35550;SDS011;21655;46.056;13.616;2022-08-02T19:51:14;3.55;;;1.67;;
35550;SDS011;21655;46.056;13.616;2022-08-02T19:53:40;3.70;;;1.50;;
35550;SDS011;21655;46.056;13.616;2022-08-02T19:56:06;4.10;;;2.00;;
35550;SDS011;21655;46.056;13.616;2022-08-02T19:58:31;4.50;;;1.80;;
35550;SDS011;21655;46.056;13.616;2022-08-02T20:01:00;6.15;;;2.35;;
35550;SDS011;21655;46.056;13.616;2022-08-02T20:03:26;4.45;;;2.25;;
35550;SDS011;21655;46.056;13.616;2022-08-02T20:05:52;4.68;;;1.67;;
35550;SDS011;21655;46.056;13.616;2022-08-02T20:08:17;4.18;;;2.00;;
35550;SDS011;21655;46.056;13.616;2022-08-02T20:10:42;6.88;;;2.10;;
35550;SDS011;21655;46.056;13.616;2022-08-02T20:13:09;6.07;;;1.70;;
35550;SDS011;21655;46.056;13.616;2022-08-02T20:15:35;3.55;;;1.70;;
35550;SDS011;21655;46.056;13.616;2022-08-02T20:18:00;4.85;;;2.17;;
35550;SDS011;21655;46.056;13.616;2022-08-02T20:20:26;4.68;;;1.92;;
35550;SDS011;21655;46.056;13.616;2022-08-02T20:22:51;4.78;;;1.90;;
35550;SDS011;21655;46.056;13.616;2022-08-02T20:25:36;4.00;;;1.80;;
35550;SDS011;21655;46.056;13.616;2022-08-02T20:28:01;2.88;;;1.70;;
35550;SDS011;21655;46.056;13.616;2022-08-02T20:30:27;4.75;;;1.92;;
35550;SDS011;21655;46.056;13.616;2022-08-02T20:32:52;2.60;;;1.92;;
35550;SDS011;21655;46.056;13.616;2022-08-02T20:35:19;5.68;;;2.03;;
35550;SDS011;21655;46.056;13.616;2022-08-02T20:37:45;5.93;;;2.00;;
35550;SDS011;21655;46.056;13.616;2022-08-02T20:40:10;3.63;;;2.42;;
35550;SDS011;21655;46.056;13.616;2022-08-02T20:42:36;5.68;;;2.13;;
35550;SDS011;21655;46.056;13.616;2022-08-02T20:45:02;5.22;;;1.83;;
35550;SDS011;21655;46.056;13.616;2022-08-02T20:47:29;5.13;;;2.10;;
35550;SDS011;21655;46.056;13.616;2022-08-02T20:49:54;6.57;;;2.33;;
35550;SDS011;21655;46.056;13.616;2022-08-02T20:52:39;3.83;;;2.20;;
35550;SDS011;21655;46.056;13.616;2022-08-02T20:55:04;3.78;;;1.98;;
35550;SDS011;21655;46.056;13.616;2022-08-02T20:57:30;6.65;;;2.05;;
35550;SDS011;21655;46.056;13.616;2022-08-02T20:59:56;4.22;;;1.98;;
35550;SDS011;21655;46.056;13.616;2022-08-02T21:02:27;14.55;;;2.20;;
35550;SDS011;21655;46.056;13.616;2022-08-02T21:04:52;5.38;;;2.45;;
35550;SDS011;21655;46.056;13.616;2022-08-02T21:07:18;7.32;;;2.15;;
35550;SDS011;21655;46.056;13.616;2022-08-02T21:09:43;6.00;;;2.33;;
35550;SDS011;21655;46.056;13.616;2022-08-02T21:12:09;8.85;;;2.17;;
35550;SDS011;21655;46.056;13.616;2022-08-02T21:14:34;7.72;;;2.33;;
35550;SDS011;21655;46.056;13.616;2022-08-02T21:17:00;5.03;;;2.10;;
35550;SDS011;21655;46.056;13.616;2022-08-02T21:19:25;9.00;;;2.47;;